createdAt,value
2022-10-15T00:01:10.388Z,70.20
2022-10-15T00:03:39.624Z,70.20
2022-10-15T00:06:12.141Z,70.10
2022-10-15T00:08:41.112Z,70.10
2022-10-15T00:11:11.445Z,70.10
2022-10-15T00:13:41.568Z,70.10
2022-10-15T00:16:12.028Z,70.10
2022-10-15T00:18:40.418Z,70.10
2022-10-15T00:21:09.302Z,70.10
2022-10-15T00:23:37.960Z,70.20
2022-10-15T00:26:08.881Z,70.10
2022-10-15T00:28:37.159Z,70.10
2022-10-15T00:31:09.572Z,70.10
2022-10-15T00:33:38.424Z,70.10
2022-10-15T00:36:08.739Z,70.10
2022-10-15T00:38:37.114Z,70.10
2022-10-15T00:41:06.254Z,70.10
2022-10-15T00:43:42.725Z,70.10
2022-10-15T00:46:25.702Z,70.10
2022-10-15T00:48:58.022Z,70.10
2022-10-15T00:51:30.485Z,70.10
2022-10-15T00:54:00.451Z,70.10
2022-10-15T00:56:32.698Z,70.10
2022-10-15T00:59:01.592Z,70.10
2022-10-15T01:01:32.282Z,70.10
2022-10-15T01:04:02.516Z,70.10
2022-10-15T01:06:30.647Z,70.10
2022-10-15T01:08:59.909Z,70.10
2022-10-15T01:11:37.956Z,70.10
2022-10-15T01:14:18.700Z,70.10
2022-10-15T01:16:52.695Z,70.10
2022-10-15T01:19:37.677Z,70.10
2022-10-15T01:22:10.505Z,70.10
2022-10-15T01:24:56.042Z,70.10
2022-10-15T01:27:31.107Z,70.10
2022-10-15T01:30:25.826Z,70.10
2022-10-15T01:33:26.962Z,70.10
2022-10-15T01:36:01.345Z,70.10
2022-10-15T01:38:40.323Z,70.10
2022-10-15T01:41:12.958Z,70.10
2022-10-15T01:43:47.953Z,70.10
2022-10-15T01:46:49.543Z,70.10
2022-10-15T01:49:27.781Z,70.10
2022-10-15T01:51:58.424Z,70.10
2022-10-15T01:54:28.984Z,70.10
2022-10-15T01:56:59.828Z,70.10
2022-10-15T01:59:33.099Z,70.10
2022-10-15T02:02:02.702Z,70.10
2022-10-15T02:04:32.569Z,70.10
2022-10-15T02:07:04.929Z,70.10
2022-10-15T02:09:44.560Z,70.10
2022-10-15T02:12:31.930Z,70.10
2022-10-15T02:15:08.017Z,70.10
2022-10-15T02:17:42.276Z,70.10
2022-10-15T02:20:16.845Z,70.20
2022-10-15T02:22:50.138Z,70.10
2022-10-15T02:25:22.413Z,70.10
2022-10-15T02:27:53.963Z,70.10
2022-10-15T02:30:22.647Z,70.10
2022-10-15T02:32:56.620Z,70.10
2022-10-15T02:35:25.636Z,70.10
2022-10-15T02:37:55.761Z,70.10
2022-10-15T02:40:27.802Z,70.10
2022-10-15T02:42:56.563Z,70.10
2022-10-15T02:45:24.810Z,70.10
2022-10-15T02:47:54.588Z,70.00
2022-10-15T02:50:22.684Z,70.00
2022-10-15T02:52:59.895Z,70.00
2022-10-15T02:55:28.217Z,70.00
2022-10-15T02:57:56.365Z,70.00
2022-10-15T03:00:24.519Z,70.10
2022-10-15T03:02:54.574Z,70.00
2022-10-15T03:05:22.888Z,70.00
2022-10-15T03:07:51.064Z,70.00
2022-10-15T03:10:20.085Z,70.10
2022-10-15T03:12:48.245Z,70.00
2022-10-15T03:15:16.750Z,70.10
2022-10-15T03:17:46.877Z,70.00
2022-10-15T03:20:19.064Z,70.00
2022-10-15T03:22:47.198Z,70.00
2022-10-15T03:25:15.461Z,70.00
2022-10-15T03:27:43.818Z,70.00
2022-10-15T03:30:23.587Z,70.10
2022-10-15T03:32:52.799Z,70.00
2022-10-15T03:35:22.276Z,70.00
2022-10-15T03:37:50.824Z,70.00
2022-10-15T03:40:19.432Z,70.00
2022-10-15T03:42:51.762Z,70.00
2022-10-15T03:45:25.751Z,70.00
2022-10-15T03:48:08.872Z,70.00
2022-10-15T03:50:39.525Z,70.00
2022-10-15T03:53:07.906Z,70.10
2022-10-15T03:55:36.466Z,70.20
2022-10-15T03:58:04.892Z,70.10
2022-10-15T04:00:33.382Z,70.00
2022-10-15T04:03:04.082Z,70.10
2022-10-15T04:05:32.237Z,70.00
2022-10-15T04:08:08.356Z,70.10
2022-10-15T04:10:40.655Z,70.20
2022-10-15T04:13:09.104Z,70.00
2022-10-15T04:15:40.591Z,70.10
2022-10-15T04:18:15.522Z,70.10
2022-10-15T04:20:44.295Z,70.20
2022-10-15T04:23:22.124Z,70.20
2022-10-15T04:26:10.724Z,70.10
2022-10-15T04:28:38.925Z,70.20
2022-10-15T04:31:07.148Z,70.20
2022-10-15T04:33:36.089Z,70.20
2022-10-15T04:36:06.953Z,70.20
2022-10-15T04:38:49.973Z,70.20
2022-10-15T04:41:27.270Z,70.20
2022-10-15T04:44:05.556Z,70.20
2022-10-15T04:46:34.281Z,70.20
2022-10-15T04:49:20.884Z,70.20
2022-10-15T04:51:49.052Z,70.20
2022-10-15T04:54:24.670Z,70.10
2022-10-15T04:56:59.496Z,70.20
2022-10-15T04:59:28.648Z,70.10
2022-10-15T05:02:15.298Z,70.20
2022-10-15T05:04:44.976Z,70.20
2022-10-15T05:07:13.591Z,70.20
2022-10-15T05:09:46.521Z,70.20
2022-10-15T05:12:15.472Z,70.10
2022-10-15T05:14:43.585Z,70.20
2022-10-15T05:17:27.146Z,70.10
2022-10-15T05:19:56.581Z,70.10
2022-10-15T05:22:28.353Z,70.10
2022-10-15T05:25:01.570Z,70.10
2022-10-15T05:27:34.287Z,70.10
2022-10-15T05:30:05.154Z,70.10
2022-10-15T05:32:52.163Z,70.20
2022-10-15T05:35:21.828Z,70.20
2022-10-15T05:38:00.397Z,70.20
2022-10-15T05:40:30.257Z,70.20
2022-10-15T05:43:11.838Z,70.20
2022-10-15T05:45:39.953Z,70.20
2022-10-15T05:48:08.525Z,70.30
2022-10-15T05:50:37.342Z,70.30
2022-10-15T05:53:09.330Z,70.30
2022-10-15T05:55:45.053Z,70.30
2022-10-15T05:58:13.149Z,70.20
2022-10-15T06:00:41.257Z,70.30
2022-10-15T06:03:13.682Z,70.30
2022-10-15T06:05:41.804Z,70.20
2022-10-15T06:08:09.853Z,70.30
2022-10-15T06:10:38.811Z,70.30
2022-10-15T06:13:08.383Z,70.30
2022-10-15T06:15:39.640Z,70.20
2022-10-15T06:18:15.821Z,70.30
2022-10-15T06:20:44.546Z,70.40
2022-10-15T06:23:13.323Z,70.40
2022-10-15T06:25:41.417Z,70.20
2022-10-15T06:28:11.033Z,70.30
2022-10-15T06:30:45.217Z,70.20
2022-10-15T06:33:13.400Z,70.20
2022-10-15T06:35:41.803Z,70.20
2022-10-15T06:38:10.083Z,70.30
2022-10-15T06:40:38.887Z,70.30
2022-10-15T06:43:08.966Z,70.40
2022-10-15T06:45:41.959Z,70.30
2022-10-15T06:48:18.300Z,70.30
2022-10-15T06:50:46.439Z,70.30
2022-10-15T06:53:14.553Z,70.30
2022-10-15T06:55:43.010Z,70.30
2022-10-15T06:58:11.181Z,70.30
2022-10-15T07:00:40.650Z,70.20
2022-10-15T07:03:09.010Z,70.20
2022-10-15T07:05:39.745Z,70.20
2022-10-15T07:08:07.875Z,70.30
2022-10-15T07:10:36.021Z,70.30
2022-10-15T07:13:04.402Z,70.40
2022-10-15T07:15:32.523Z,70.40
2022-10-15T07:18:02.263Z,70.40
2022-10-15T07:20:31.575Z,70.40
2022-10-15T07:23:01.509Z,70.50
2022-10-15T07:25:33.063Z,70.50
2022-10-15T07:28:01.261Z,70.60
2022-10-15T07:30:29.761Z,70.60
2022-10-15T07:32:58.149Z,70.40
2022-10-15T07:35:28.396Z,70.50
2022-10-15T07:37:57.374Z,70.50
2022-10-15T07:40:25.444Z,70.50
2022-10-15T07:42:57.304Z,70.50
2022-10-15T07:45:30.728Z,70.40
2022-10-15T07:47:58.839Z,70.50
2022-10-15T07:50:30.704Z,71.10
2022-10-15T07:53:03.311Z,73.50
2022-10-15T07:55:31.466Z,73.20
2022-10-15T07:57:59.617Z,73.50
2022-10-15T08:00:27.981Z,73.70
2022-10-15T08:02:56.056Z,73.40
2022-10-15T08:05:26.569Z,72.90
2022-10-15T08:07:56.131Z,72.60
2022-10-15T08:10:24.233Z,72.30
2022-10-15T08:12:52.329Z,72.20
2022-10-15T08:15:20.955Z,72.00
2022-10-15T08:17:49.159Z,72.10
2022-10-15T08:20:17.551Z,71.90
2022-10-15T08:22:45.799Z,72.50
2022-10-15T08:25:15.396Z,72.60
2022-10-15T08:27:43.459Z,73.20
2022-10-15T08:30:12.523Z,72.90
2022-10-15T08:32:40.716Z,72.50
2022-10-15T08:35:09.540Z,72.40
2022-10-15T08:37:37.883Z,72.30
2022-10-15T08:40:06.992Z,72.30
2022-10-15T08:42:39.351Z,72.20
2022-10-15T08:45:14.816Z,72.10
2022-10-15T08:47:47.983Z,72.10
2022-10-15T08:50:25.597Z,72.00
2022-10-15T08:52:56.123Z,72.00
2022-10-15T08:58:03.340Z,72.00
2022-10-15T09:00:36.671Z,71.90
2022-10-15T09:03:12.612Z,72.00
2022-10-15T09:05:54.513Z,71.80
2022-10-15T09:08:29.735Z,71.90
2022-10-15T09:11:03.634Z,71.80
2022-10-15T09:16:12.275Z,72.00
2022-10-15T09:18:43.827Z,71.90
2022-10-15T09:21:13.809Z,72.00
2022-10-15T09:23:43.788Z,71.90
2022-10-15T09:26:23.218Z,71.90
2022-10-15T09:28:59.628Z,71.90
2022-10-15T09:31:37.545Z,71.90
2022-10-15T09:34:14.545Z,71.70
2022-10-15T09:36:48.069Z,71.70
2022-10-15T09:39:39.822Z,71.60
2022-10-15T09:42:17.413Z,71.70
2022-10-15T09:44:48.944Z,71.80
2022-10-15T09:47:23.879Z,71.90
2022-10-15T09:49:56.750Z,71.90
2022-10-15T09:52:36.795Z,72.00
2022-10-15T09:55:17.733Z,71.90
2022-10-15T09:57:51.394Z,72.10
2022-10-15T10:00:22.014Z,72.00
2022-10-15T10:03:06.961Z,71.80
2022-10-15T10:05:39.014Z,71.80
2022-10-15T10:08:11.936Z,71.80
2022-10-15T10:10:43.027Z,71.90
2022-10-15T10:13:24.983Z,71.90
2022-10-15T10:15:58.465Z,71.70
2022-10-15T10:18:28.205Z,71.60
2022-10-15T10:20:59.887Z,71.70
2022-10-15T10:23:34.650Z,71.80
2022-10-15T10:26:05.110Z,71.60
2022-10-15T10:28:39.286Z,71.60
2022-10-15T10:31:12.336Z,71.80
2022-10-15T10:33:45.803Z,71.90
2022-10-15T10:36:22.673Z,73.40
2022-10-15T10:39:01.735Z,74.50
2022-10-15T10:41:51.590Z,74.40
2022-10-15T10:44:23.203Z,74.30
2022-10-15T10:47:15.482Z,74.10
2022-10-15T10:49:45.726Z,73.90
2022-10-15T10:52:22.274Z,73.30
2022-10-15T10:54:57.413Z,72.70
2022-10-15T10:57:33.642Z,71.70
2022-10-15T11:00:04.287Z,71.30
2022-10-15T11:02:39.145Z,70.90
2022-10-15T11:05:08.081Z,71.10
2022-10-15T11:07:45.707Z,71.10
2022-10-15T11:10:21.804Z,71.20
2022-10-15T11:13:00.707Z,71.00
2022-10-15T11:15:42.205Z,71.10
2022-10-15T11:18:28.280Z,70.90
2022-10-15T11:21:07.235Z,70.90
2022-10-15T11:24:06.598Z,70.90
2022-10-15T11:27:06.586Z,70.80
2022-10-15T11:29:54.503Z,70.70
2022-10-15T11:33:05.678Z,70.50
2022-10-15T11:35:58.743Z,70.20
2022-10-15T11:38:32.572Z,69.90
2022-10-15T11:41:15.832Z,69.70
2022-10-15T11:44:05.076Z,69.70
2022-10-15T11:46:44.174Z,69.60
2022-10-15T11:49:27.639Z,69.60
2022-10-15T11:52:10.601Z,69.50
2022-10-15T11:54:41.587Z,69.30
2022-10-15T11:57:12.894Z,69.10
2022-10-15T11:59:48.684Z,69.00
2022-10-15T12:02:19.833Z,69.10
2022-10-15T12:04:50.945Z,69.10
2022-10-15T12:07:25.029Z,69.20
2022-10-15T12:09:56.640Z,69.00
2022-10-15T12:12:34.793Z,69.10
2022-10-15T12:15:27.657Z,69.00
2022-10-15T12:18:02.875Z,68.90
2022-10-15T12:20:31.620Z,68.70
2022-10-15T12:23:03.360Z,68.70
2022-10-15T12:25:46.663Z,68.70
2022-10-15T12:28:18.533Z,68.80
2022-10-15T12:31:01.493Z,69.00
2022-10-15T12:33:35.630Z,69.00
2022-10-15T12:36:09.434Z,69.40
2022-10-15T12:38:41.992Z,69.20
2022-10-15T12:41:12.491Z,69.20
2022-10-15T12:43:44.137Z,69.20
2022-10-15T12:46:14.465Z,69.30
2022-10-15T12:48:44.023Z,69.30
2022-10-15T12:51:30.896Z,69.30
2022-10-15T12:54:02.386Z,69.50
2022-10-15T12:56:40.083Z,69.50
2022-10-15T12:59:31.856Z,69.80
2022-10-15T13:02:03.596Z,69.40
2022-10-15T13:04:40.541Z,69.30
2022-10-15T13:07:13.888Z,69.10
2022-10-15T13:09:43.437Z,68.80
2022-10-15T13:12:23.458Z,68.60
2022-10-15T13:14:57.602Z,68.60
2022-10-15T13:17:25.806Z,68.70
2022-10-15T13:19:59.583Z,68.70
2022-10-15T13:22:32.387Z,68.90
2022-10-15T13:25:02.424Z,69.40
2022-10-15T13:27:32.220Z,69.50
2022-10-15T13:30:02.113Z,69.50
2022-10-15T13:32:32.766Z,69.60
2022-10-15T13:35:02.167Z,69.50
2022-10-15T13:37:33.923Z,69.50
2022-10-15T13:40:07.920Z,69.50
2022-10-15T13:42:36.793Z,69.50
2022-10-15T13:45:06.713Z,69.40
2022-10-15T13:47:36.727Z,69.30
2022-10-15T13:50:17.836Z,69.30
2022-10-15T13:52:49.570Z,69.60
2022-10-15T13:55:21.629Z,69.40
2022-10-15T13:57:51.697Z,69.60
2022-10-15T14:00:26.106Z,69.60
2022-10-15T14:03:25.508Z,69.70
2022-10-15T14:05:55.372Z,69.50
2022-10-15T14:08:26.539Z,69.10
2022-10-15T14:10:59.023Z,69.00
2022-10-15T14:13:28.038Z,69.20
2022-10-15T14:18:38.717Z,69.00
2022-10-15T14:21:13.003Z,68.70
2022-10-15T14:23:43.022Z,68.70
2022-10-15T14:26:14.345Z,68.80
2022-10-15T14:28:44.071Z,68.40
2022-10-15T14:31:30.725Z,68.40
2022-10-15T14:33:58.874Z,68.50
2022-10-15T14:36:30.596Z,68.40
2022-10-15T14:39:26.025Z,68.50
2022-10-15T14:42:00.172Z,68.60
2022-10-15T14:44:40.838Z,68.60
2022-10-15T14:47:19.288Z,68.80
2022-10-15T14:49:47.601Z,68.80
2022-10-15T14:52:20.266Z,69.10
2022-10-15T14:54:52.626Z,69.00
2022-10-15T14:57:25.578Z,68.50
2022-10-15T14:59:55.303Z,68.60
2022-10-15T15:02:27.427Z,68.80
2022-10-15T15:05:09.442Z,68.80
2022-10-15T15:07:37.599Z,68.80
2022-10-15T15:10:06.666Z,68.70
2022-10-15T15:12:37.100Z,68.90
2022-10-15T15:15:06.272Z,68.70
2022-10-15T15:17:34.486Z,68.90
2022-10-15T15:22:37.375Z,68.80
2022-10-15T15:25:14.305Z,69.00
2022-10-15T15:27:43.867Z,68.80
2022-10-15T15:30:17.913Z,68.80
2022-10-15T15:32:46.844Z,68.70
2022-10-15T15:35:26.549Z,68.90
2022-10-15T15:37:54.792Z,68.70
2022-10-15T15:40:23.336Z,68.90
2022-10-15T15:42:52.799Z,69.20
2022-10-15T15:45:23.283Z,69.20
2022-10-15T15:47:51.867Z,69.20
2022-10-15T15:50:21.397Z,69.30
2022-10-15T15:52:49.493Z,69.30
2022-10-15T15:55:18.164Z,69.30
2022-10-15T15:57:47.819Z,69.30
2022-10-15T16:00:18.067Z,69.40
2022-10-15T16:02:46.344Z,69.40
2022-10-15T16:05:16.696Z,69.50
2022-10-15T16:07:45.208Z,69.30
2022-10-15T16:10:13.425Z,69.30
2022-10-15T16:12:42.792Z,69.40
2022-10-15T16:15:14.588Z,69.20
2022-10-15T16:17:44.891Z,69.20
2022-10-15T16:20:13.419Z,69.20
2022-10-15T16:22:42.671Z,69.20
2022-10-15T16:25:11.458Z,69.20
2022-10-15T16:27:39.584Z,69.20
2022-10-15T16:30:08.604Z,69.30
2022-10-15T16:32:37.144Z,69.50
2022-10-15T16:35:07.730Z,69.50
2022-10-15T16:37:36.099Z,69.50
2022-10-15T16:40:04.601Z,69.40
2022-10-15T16:42:32.772Z,69.30
2022-10-15T16:45:00.904Z,69.30
2022-10-15T16:47:29.217Z,69.50
2022-10-15T16:49:57.339Z,69.20
2022-10-15T16:52:27.168Z,69.20
2022-10-15T16:54:55.658Z,69.20
2022-10-15T16:57:23.765Z,69.30
2022-10-15T16:59:51.927Z,69.30
2022-10-15T17:02:20.173Z,69.30
2022-10-15T17:04:48.305Z,69.30
2022-10-15T17:07:16.466Z,69.30
2022-10-15T17:12:21.079Z,69.30
2022-10-15T17:14:51.816Z,69.30
2022-10-15T17:17:20.165Z,69.30
2022-10-15T17:19:48.271Z,69.30
2022-10-15T17:22:16.523Z,69.30
2022-10-15T17:24:46.055Z,69.40
2022-10-15T17:27:14.154Z,69.40
2022-10-15T17:29:42.256Z,69.40
2022-10-15T17:32:10.392Z,69.40
2022-10-15T17:34:38.536Z,69.30
2022-10-15T17:37:06.665Z,69.30
2022-10-15T17:39:36.311Z,69.30
2022-10-15T17:42:07.853Z,69.40
2022-10-15T17:44:36.005Z,69.40
2022-10-15T17:47:04.133Z,69.40
2022-10-15T17:49:32.226Z,69.40
2022-10-15T17:52:00.362Z,69.40
2022-10-15T17:54:28.571Z,69.50
2022-10-15T17:56:56.727Z,69.50
2022-10-15T17:59:26.437Z,69.50
2022-10-15T18:01:59.292Z,69.50
2022-10-15T18:04:28.666Z,69.50
2022-10-15T18:06:56.811Z,69.60
2022-10-15T18:09:25.095Z,69.60
2022-10-15T18:11:57.001Z,69.70
2022-10-15T18:14:30.659Z,69.70
2022-10-15T18:16:59.277Z,69.70
2022-10-15T18:19:28.129Z,69.60
2022-10-15T18:21:56.938Z,69.60
2022-10-15T18:24:25.656Z,69.60
2022-10-15T18:26:54.359Z,69.60
2022-10-15T18:29:25.314Z,69.60
2022-10-15T18:31:57.940Z,69.60
2022-10-15T18:34:28.536Z,69.60
2022-10-15T18:36:56.665Z,69.70
2022-10-15T18:39:25.414Z,69.70
2022-10-15T18:41:53.626Z,69.70
2022-10-15T18:44:23.908Z,69.80
2022-10-15T18:46:52.514Z,69.70
2022-10-15T18:49:22.581Z,69.70
2022-10-15T18:51:53.061Z,69.70
2022-10-15T18:54:22.166Z,69.70
2022-10-15T18:56:50.968Z,69.70
2022-10-15T18:59:20.886Z,69.70
2022-10-15T19:01:50.254Z,69.70
2022-10-15T19:04:19.988Z,69.70
2022-10-15T19:06:51.228Z,69.70
2022-10-15T19:09:21.619Z,69.80
2022-10-15T19:11:52.493Z,69.80
2022-10-15T19:14:22.581Z,70.00
2022-10-15T19:16:50.937Z,70.10
2022-10-15T19:19:21.345Z,70.10
2022-10-15T19:21:52.643Z,70.00
2022-10-15T19:24:22.316Z,69.90
2022-10-15T19:26:51.711Z,69.90
2022-10-15T19:29:20.908Z,69.80
2022-10-15T19:31:50.910Z,69.80
2022-10-15T19:34:19.112Z,69.80
2022-10-15T19:36:50.664Z,69.80
2022-10-15T19:39:22.059Z,69.80
2022-10-15T19:41:51.379Z,69.80
2022-10-15T19:44:24.893Z,69.90
2022-10-15T19:46:53.691Z,69.90
2022-10-15T19:49:22.176Z,70.00
2022-10-15T19:51:51.166Z,70.00
2022-10-15T19:54:20.897Z,70.00
2022-10-15T19:56:49.368Z,69.90
2022-10-15T19:59:18.315Z,70.00
2022-10-15T20:01:46.574Z,70.00
2022-10-15T20:04:14.781Z,70.00
2022-10-15T20:06:43.611Z,70.10
2022-10-15T20:09:11.753Z,70.10
2022-10-15T20:11:41.707Z,70.20
2022-10-15T20:14:09.943Z,70.20
2022-10-15T20:16:38.294Z,70.20
2022-10-15T20:19:07.165Z,70.20
2022-10-15T20:21:35.676Z,70.40
2022-10-15T20:24:04.721Z,70.40
2022-10-15T20:26:34.209Z,70.40
2022-10-15T20:29:04.126Z,70.50
2022-10-15T20:31:34.911Z,70.50
2022-10-15T20:34:03.853Z,70.50
2022-10-15T20:36:32.020Z,70.60
2022-10-15T20:39:00.955Z,70.60
2022-10-15T20:41:29.454Z,70.60
2022-10-15T20:43:58.136Z,70.60
2022-10-15T20:46:32.860Z,70.70
2022-10-15T20:49:07.789Z,70.70
2022-10-15T20:51:38.062Z,70.70
2022-10-15T20:54:06.547Z,70.70
2022-10-15T20:56:34.840Z,70.80
2022-10-15T20:59:04.520Z,70.80
2022-10-15T21:01:35.523Z,70.80
2022-10-15T21:04:04.604Z,70.80
2022-10-15T21:06:33.210Z,70.80
2022-10-15T21:09:01.378Z,70.80
2022-10-15T21:11:29.544Z,70.90
2022-10-15T21:13:57.742Z,70.80
2022-10-15T21:16:28.326Z,70.70
2022-10-15T21:18:58.175Z,70.70
2022-10-15T21:21:26.396Z,70.70
2022-10-15T21:23:54.556Z,70.60
2022-10-15T21:26:23.126Z,70.60
2022-10-15T21:28:55.773Z,70.50
2022-10-15T21:31:24.407Z,70.40
2022-10-15T21:33:53.458Z,70.40
2022-10-15T21:36:26.295Z,70.30
2022-10-15T21:38:56.479Z,70.30
2022-10-15T21:41:25.895Z,70.20
2022-10-15T21:43:54.137Z,70.20
2022-10-15T21:46:22.579Z,70.20
2022-10-15T21:48:51.059Z,70.20
2022-10-15T21:51:20.856Z,70.10
2022-10-15T21:53:50.755Z,70.10
2022-10-15T21:56:19.236Z,70.10
2022-10-15T21:58:47.631Z,70.10
2022-10-15T22:01:19.509Z,70.10
2022-10-15T22:03:48.785Z,70.10
2022-10-15T22:06:17.984Z,70.10
2022-10-15T22:08:46.702Z,70.10
2022-10-15T22:11:19.003Z,70.10
2022-10-15T22:13:50.345Z,70.10
2022-10-15T22:16:19.704Z,70.10
2022-10-15T22:18:48.400Z,70.10
2022-10-15T22:21:18.740Z,70.10
2022-10-15T22:23:48.703Z,70.10
2022-10-15T22:26:19.556Z,70.00
2022-10-15T22:28:48.287Z,70.00
2022-10-15T22:31:17.956Z,70.00
2022-10-15T22:33:46.876Z,70.00
2022-10-15T22:36:16.976Z,70.00
2022-10-15T22:38:47.607Z,70.00
2022-10-15T22:41:18.158Z,70.00
2022-10-15T22:43:46.457Z,70.00
2022-10-15T22:46:15.070Z,70.00
2022-10-15T22:48:44.081Z,70.00
2022-10-15T22:51:14.409Z,70.00
2022-10-15T22:53:43.173Z,70.00
2022-10-15T22:56:14.413Z,70.00
2022-10-15T22:58:44.514Z,70.00
2022-10-15T23:01:14.775Z,70.00
2022-10-15T23:03:45.005Z,70.00
2022-10-15T23:06:14.016Z,70.00
2022-10-15T23:08:42.861Z,70.00
2022-10-15T23:11:13.163Z,70.00
2022-10-15T23:13:43.601Z,70.00
2022-10-15T23:16:14.831Z,70.00
2022-10-15T23:18:44.588Z,69.90
2022-10-15T23:21:14.746Z,69.90
2022-10-15T23:23:43.508Z,69.90
2022-10-15T23:26:13.412Z,69.90
2022-10-15T23:28:45.296Z,69.90
2022-10-15T23:31:17.361Z,69.90
2022-10-15T23:33:45.700Z,69.90
2022-10-15T23:36:14.468Z,69.90
2022-10-15T23:38:42.599Z,69.90
2022-10-15T23:41:11.249Z,69.90
2022-10-15T23:43:40.062Z,69.90
2022-10-15T23:46:10.079Z,69.90
2022-10-15T23:48:38.428Z,69.90
2022-10-15T23:51:13.365Z,69.90
2022-10-15T23:53:42.046Z,69.90
2022-10-15T23:56:10.153Z,69.90
2022-10-15T23:58:38.630Z,69.80
